Meteo Giornale » Osservazioni meteo Svizzera » Samedan

ore: 11:20 - Osservazioni Meteo Samedan
Lat. 46° 32' N Lon. 9° 53' E Alt. 1706 metri s.l.m.

sereno Europe/Zurich

12 °C

Sereno

Temp. 24 Ore

1 °C

19 °C

Nord

3.7 Km/h

Dew point 6 °C

Umidità 66 %

Visibilità  10 Km

Il sole sorge alle ore 07:00

Il sole tramonta alle ore 19:28

Data e Ora Cielo e Fenomeni T °C DP °C Um. % Pres. hPa Vis. km Vento km/h
Oggi h: 11:20 sereno Sereno 12 6 66 1023 10 N 3.7
Oggi h: 10:50 sereno Sereno 11 6 71 1023 10 N 0
Oggi h: 10:20 sereno Sereno 9 5 75 1023 10 N 3.7
Oggi h: 09:50 sereno Sereno 6 6 100 1023 10 N 1.8
Oggi h: 09:20 sereno Sereno 4 4 100 1023 10 N 1.8
Oggi h: 08:50 sereno Sereno 3 3 100 1023 10 N 3.7
Oggi h: 08:20 sereno Sereno 2 2 100 1023 10 N 3.7
Oggi h: 07:50 sereno Sereno 1 1 100 1023 10 N 3.7
Oggi h: 07:20 sereno Sereno 3 3 100 1023 10 N 1.8
Oggi h: 06:50 sereno Sereno 2 2 100 1022 10 N 1.8
Oggi h: 06:20 sereno Sereno 3 3 100 1022 10 N 1.8
Oggi h: 05:50 sereno Sereno 2 2 100 1022 10 N 3.7
Oggi h: 05:20 sereno Sereno 3 3 100 1022 10 N 1.8
Oggi h: 04:50 sereno Sereno 2 2 100 1022 10 N 3.7
Oggi h: 04:20 sereno Sereno 4 3 93 1022 10 S 7.4
Oggi h: 03:50 sereno Sereno 4 4 100 1022 10 N 5.5
Oggi h: 03:20 sereno Sereno 5 4 93 1022 10 N 3.7
Oggi h: 02:50 sereno Sereno 5 4 93 1022 10 N 3.7
Oggi h: 02:20 sereno Sereno 6 4 86 1023 10 N 5.5
Oggi h: 01:50 molto_nuvoloso Molto Nuvoloso 5 4 93 1023 10 N 1.8
Oggi h: 01:20 sereno Sereno 7 5 87 1023 10 S/SE 7.4
Oggi h: 00:50 sereno Sereno 7 5 87 1023 10 N/NE 16.7
Oggi h: 00:20 sereno Sereno 9 6 81 1023 10 N 16.7
Ieri h: 23:50 sereno Sereno 9 6 81 1023 10 N/NE 13
Ieri h: 23:20 sereno Sereno 12 6 66 1023 10 N 11.1
Ieri h: 22:50 sereno Sereno 13 5 58 1023 10 N/NO 16.7
Ieri h: 22:20 sereno Sereno 14 5 54 1023 10 O/NO 13
Ieri h: 21:50 poco_nuvoloso Poco Nuvoloso 10 6 76 1022 10 N 1.8
Ieri h: 21:20 nuvoloso Nuvoloso 13 7 66 1022 10 N 3.7
Ieri h: 20:50 coperto Coperto 14 7 62 1022 10 N 5.5
Ieri h: 20:20 molto_nuvoloso Molto Nuvoloso 16 6 51 1022 10 N 11.1
Ieri h: 19:50 molto_nuvoloso Molto Nuvoloso 16 7 55 1021 10 N/NE 16.7
Ieri h: 19:20 nuvoloso Nuvoloso 15 6 54 1021 10 N 3.7
Ieri h: 17:50 molto_nuvoloso Molto Nuvoloso 17 6 48 1021 10 N 14.8
Ieri h: 16:50 molto_nuvoloso Molto Nuvoloso 18 6 45 1021 10 N/NE 24
Ieri h: 16:20 molto_nuvoloso Molto Nuvoloso 18 6 45 1021 10 N/NO 14.8
Ieri h: 15:50 molto_nuvoloso Molto Nuvoloso 18 5 42 1022 10 N 9.3
Ieri h: 15:20 molto_nuvoloso Molto Nuvoloso 18 4 39 1022 10 NO 13
Ieri h: 14:50 molto_nuvoloso Molto Nuvoloso 18 4 39 1022 10 N/NE 7.4
Ieri h: 14:20 molto_nuvoloso Molto Nuvoloso 18 4 39 1022 10 N 14.8
Ieri h: 13:50 molto_nuvoloso Molto Nuvoloso 19 4 37 1022 10 N 20.3
Ieri h: 13:20 molto_nuvoloso Molto Nuvoloso 19 4 37 1022 10 N 22.2
Ieri h: 12:50 nuvoloso Nuvoloso 19 4 37 1022 10 N 24
Ieri h: 12:20 nuvoloso Nuvoloso 18 3 36 1023 10 N 25.9
Ieri h: 11:50 nuvoloso Nuvoloso 18 5 42 1023 10 N/NE 16.7